Stratham, New Hampshire
Current Conditions -  °F | °C
As of 11:58 PM on Friday 19 Dec 2014 (Local Time) from KPSM Reporting Station
Few Clouds Few Clouds  
Wind Chill: 16°   Ceiling: Unl
Heat Index: 24°   Visibility: 10mi
Dew Point: 19°   Wind: 7mph
Humidity: 81%   Direction: 320°NW
Pressure: 30.13"   Gusts: NA
Location:  43.02°N, 70.91°W
Report Text: KPSM 200458Z 32006KT 10SM FEW036 M04/M07 A3013 RMK AO2A SLP208 T10451073 400481045
Loading
Personal Weather Stations






























Interactive Weather Map New forecast layout! Learn more

10-Day Weather Forecast

Advertisements
Track Severe Weather on mobile